sensor_id;sensor_type;location;lat;lon;timestamp;temperature;humidity
52181;DHT22;38158;53.338;6.514;2022-12-05T00:03:38;4.70;99.90
52181;DHT22;38158;53.338;6.514;2022-12-05T00:06:04;4.80;99.90
52181;DHT22;38158;53.338;6.514;2022-12-05T00:08:30;4.80;99.90
52181;DHT22;38158;53.338;6.514;2022-12-05T00:10:55;4.70;99.90
52181;DHT22;38158;53.338;6.514;2022-12-05T00:13:21;4.80;99.90
52181;DHT22;38158;53.338;6.514;2022-12-05T00:15:47;4.80;99.90
52181;DHT22;38158;53.338;6.514;2022-12-05T00:18:12;4.80;99.90
52181;DHT22;38158;53.338;6.514;2022-12-05T00:20:47;5.30;99.90
52181;DHT22;38158;53.338;6.514;2022-12-05T00:23:13;4.80;99.90
52181;DHT22;38158;53.338;6.514;2022-12-05T00:25:40;4.90;99.90
52181;DHT22;38158;53.338;6.514;2022-12-05T00:28:06;5.10;99.90
52181;DHT22;38158;53.338;6.514;2022-12-05T00:30:31;5.20;99.90
52181;DHT22;38158;53.338;6.514;2022-12-05T00:32:57;4.80;99.90
52181;DHT22;38158;53.338;6.514;2022-12-05T00:35:23;4.90;99.90
52181;DHT22;38158;53.338;6.514;2022-12-05T00:37:48;4.80;99.90
52181;DHT22;38158;53.338;6.514;2022-12-05T00:40:14;4.90;99.90
52181;DHT22;38158;53.338;6.514;2022-12-05T00:42:40;4.90;99.90
52181;DHT22;38158;53.338;6.514;2022-12-05T00:45:06;5.00;99.90
52181;DHT22;38158;53.338;6.514;2022-12-05T00:47:35;4.90;99.90
52181;DHT22;38158;53.338;6.514;2022-12-05T00:50:03;5.00;99.90
52181;DHT22;38158;53.338;6.514;2022-12-05T00:52:28;5.00;99.90
52181;DHT22;38158;53.338;6.514;2022-12-05T00:54:54;5.00;99.90
52181;DHT22;38158;53.338;6.514;2022-12-05T00:57:20;5.00;99.90
52181;DHT22;38158;53.338;6.514;2022-12-05T00:59:45;5.10;99.90
52181;DHT22;38158;53.338;6.514;2022-12-05T01:02:11;5.00;99.90
52181;DHT22;38158;53.338;6.514;2022-12-05T01:04:37;5.00;99.90
52181;DHT22;38158;53.338;6.514;2022-12-05T01:07:03;5.80;99.90
52181;DHT22;38158;53.338;6.514;2022-12-05T01:09:29;5.10;99.90
52181;DHT22;38158;53.338;6.514;2022-12-05T01:11:55;5.70;99.90
52181;DHT22;38158;53.338;6.514;2022-12-05T01:14:22;5.10;99.90
52181;DHT22;38158;53.338;6.514;2022-12-05T01:16:50;5.10;99.90
52181;DHT22;38158;53.338;6.514;2022-12-05T01:19:20;5.10;99.90
52181;DHT22;38158;53.338;6.514;2022-12-05T01:21:46;5.10;99.90
52181;DHT22;38158;53.338;6.514;2022-12-05T01:24:14;5.20;99.90
52181;DHT22;38158;53.338;6.514;2022-12-05T01:26:42;5.20;99.90
52181;DHT22;38158;53.338;6.514;2022-12-05T01:29:09;5.20;99.90
52181;DHT22;38158;53.338;6.514;2022-12-05T01:31:36;5.20;99.90
52181;DHT22;38158;53.338;6.514;2022-12-05T01:34:05;5.20;99.90
52181;DHT22;38158;53.338;6.514;2022-12-05T01:36:31;5.20;99.90
52181;DHT22;38158;53.338;6.514;2022-12-05T01:38:58;5.20;99.90
52181;DHT22;38158;53.338;6.514;2022-12-05T01:41:29;5.20;99.90
52181;DHT22;38158;53.338;6.514;2022-12-05T01:46:42;5.30;99.90
52181;DHT22;38158;53.338;6.514;2022-12-05T01:49:30;5.30;99.90
52181;DHT22;38158;53.338;6.514;2022-12-05T01:52:03;5.30;99.90
52181;DHT22;38158;53.338;6.514;2022-12-05T01:54:31;5.30;99.90
52181;DHT22;38158;53.338;6.514;2022-12-05T01:57:03;5.30;99.90
52181;DHT22;38158;53.338;6.514;2022-12-05T01:59:32;5.30;99.90
52181;DHT22;38158;53.338;6.514;2022-12-05T02:01:59;5.30;99.90
52181;DHT22;38158;53.338;6.514;2022-12-05T02:04:25;5.30;99.90
52181;DHT22;38158;53.338;6.514;2022-12-05T02:06:52;5.30;99.90
52181;DHT22;38158;53.338;6.514;2022-12-05T02:09:18;5.30;99.90
52181;DHT22;38158;53.338;6.514;2022-12-05T02:11:53;5.50;99.90
52181;DHT22;38158;53.338;6.514;2022-12-05T02:14:34;5.90;99.90
52181;DHT22;38158;53.338;6.514;2022-12-05T02:17:22;5.30;99.90
52181;DHT22;38158;53.338;6.514;2022-12-05T02:30:22;5.30;99.90
52181;DHT22;38158;53.338;6.514;2022-12-05T02:33:09;5.30;99.90
52181;DHT22;38158;53.338;6.514;2022-12-05T02:42:00;5.30;99.90
52181;DHT22;38158;53.338;6.514;2022-12-05T02:44:32;5.30;99.90
52181;DHT22;38158;53.338;6.514;2022-12-05T02:47:00;5.30;99.90
52181;DHT22;38158;53.338;6.514;2022-12-05T02:49:31;5.30;99.90
52181;DHT22;38158;53.338;6.514;2022-12-05T02:51:59;5.30;99.90
52181;DHT22;38158;53.338;6.514;2022-12-05T02:54:30;5.30;99.90
52181;DHT22;38158;53.338;6.514;2022-12-05T02:56:58;5.30;99.90
52181;DHT22;38158;53.338;6.514;2022-12-05T02:59:24;5.30;99.90
52181;DHT22;38158;53.338;6.514;2022-12-05T03:01:50;5.30;99.90
52181;DHT22;38158;53.338;6.514;2022-12-05T03:04:19;5.30;99.90
52181;DHT22;38158;53.338;6.514;2022-12-05T03:06:50;5.30;99.90
52181;DHT22;38158;53.338;6.514;2022-12-05T03:09:24;5.30;99.90
52181;DHT22;38158;53.338;6.514;2022-12-05T03:14:54;5.30;99.90
52181;DHT22;38158;53.338;6.514;2022-12-05T03:17:24;5.40;99.90
52181;DHT22;38158;53.338;6.514;2022-12-05T03:22:56;5.40;99.90
52181;DHT22;38158;53.338;6.514;2022-12-05T03:25:32;5.40;99.90
52181;DHT22;38158;53.338;6.514;2022-12-05T03:28:06;5.30;99.90
52181;DHT22;38158;53.338;6.514;2022-12-05T03:30:37;5.50;99.90
52181;DHT22;38158;53.338;6.514;2022-12-05T03:38:39;5.30;99.90
52181;DHT22;38158;53.338;6.514;2022-12-05T03:44:15;5.30;99.90
52181;DHT22;38158;53.338;6.514;2022-12-05T03:52:03;5.30;99.90
52181;DHT22;38158;53.338;6.514;2022-12-05T03:55:01;5.30;99.90
52181;DHT22;38158;53.338;6.514;2022-12-05T04:00:05;5.40;99.90
52181;DHT22;38158;53.338;6.514;2022-12-05T04:02:42;5.30;99.90
52181;DHT22;38158;53.338;6.514;2022-12-05T04:05:19;5.30;99.90
52181;DHT22;38158;53.338;6.514;2022-12-05T04:07:49;5.30;99.90
52181;DHT22;38158;53.338;6.514;2022-12-05T04:10:20;5.30;99.90
52181;DHT22;38158;53.338;6.514;2022-12-05T04:12:48;5.30;99.90
52181;DHT22;38158;53.338;6.514;2022-12-05T04:15:22;5.30;99.90
52181;DHT22;38158;53.338;6.514;2022-12-05T04:17:56;5.30;99.90
52181;DHT22;38158;53.338;6.514;2022-12-05T04:20:33;5.30;99.90
52181;DHT22;38158;53.338;6.514;2022-12-05T04:23:19;5.40;99.90
52181;DHT22;38158;53.338;6.514;2022-12-05T04:26:08;5.30;99.90
52181;DHT22;38158;53.338;6.514;2022-12-05T04:29:04;5.30;99.90
52181;DHT22;38158;53.338;6.514;2022-12-05T04:31:32;5.30;99.90
52181;DHT22;38158;53.338;6.514;2022-12-05T04:34:05;5.30;99.90
52181;DHT22;38158;53.338;6.514;2022-12-05T04:36:49;5.30;99.90
52181;DHT22;38158;53.338;6.514;2022-12-05T04:39:52;5.30;99.90
52181;DHT22;38158;53.338;6.514;2022-12-05T04:42:22;5.30;99.90
52181;DHT22;38158;53.338;6.514;2022-12-05T04:44:56;5.30;99.90
52181;DHT22;38158;53.338;6.514;2022-12-05T04:47:28;5.30;99.90
52181;DHT22;38158;53.338;6.514;2022-12-05T04:49:55;5.30;99.90
52181;DHT22;38158;53.338;6.514;2022-12-05T04:52:23;5.30;99.90
52181;DHT22;38158;53.338;6.514;2022-12-05T04:54:56;5.30;99.90
52181;DHT22;38158;53.338;6.514;2022-12-05T04:57:28;5.30;99.90
52181;DHT22;38158;53.338;6.514;2022-12-05T04:59:55;5.30;99.90
52181;DHT22;38158;53.338;6.514;2022-12-05T05:02:29;5.30;99.90
52181;DHT22;38158;53.338;6.514;2022-12-05T05:04:57;5.30;99.90
52181;DHT22;38158;53.338;6.514;2022-12-05T05:07:25;5.60;99.90
52181;DHT22;38158;53.338;6.514;2022-12-05T05:09:51;5.30;99.90
52181;DHT22;38158;53.338;6.514;2022-12-05T05:12:17;5.30;99.90
52181;DHT22;38158;53.338;6.514;2022-12-05T05:14:42;5.30;99.90
52181;DHT22;38158;53.338;6.514;2022-12-05T05:17:08;5.30;99.90
52181;DHT22;38158;53.338;6.514;2022-12-05T05:19:34;5.30;99.90
52181;DHT22;38158;53.338;6.514;2022-12-05T05:21:59;5.30;99.90
52181;DHT22;38158;53.338;6.514;2022-12-05T05:24:25;5.30;99.90
52181;DHT22;38158;53.338;6.514;2022-12-05T05:26:51;5.40;99.90
52181;DHT22;38158;53.338;6.514;2022-12-05T05:29:17;5.40;99.90
52181;DHT22;38158;53.338;6.514;2022-12-05T05:31:43;5.30;99.90
52181;DHT22;38158;53.338;6.514;2022-12-05T05:34:10;5.30;99.90
52181;DHT22;38158;53.338;6.514;2022-12-05T05:36:37;5.30;99.90
52181;DHT22;38158;53.338;6.514;2022-12-05T05:39:04;5.30;99.90
52181;DHT22;38158;53.338;6.514;2022-12-05T05:41:32;5.30;99.90
52181;DHT22;38158;53.338;6.514;2022-12-05T05:43:58;5.30;99.90
52181;DHT22;38158;53.338;6.514;2022-12-05T05:46:29;5.30;99.90
52181;DHT22;38158;53.338;6.514;2022-12-05T05:48:55;5.30;99.90
52181;DHT22;38158;53.338;6.514;2022-12-05T05:51:22;5.30;99.90
52181;DHT22;38158;53.338;6.514;2022-12-05T05:53:50;5.30;99.90
52181;DHT22;38158;53.338;6.514;2022-12-05T05:56:17;5.30;99.90
52181;DHT22;38158;53.338;6.514;2022-12-05T05:58:43;5.30;99.90
52181;DHT22;38158;53.338;6.514;2022-12-05T06:01:18;5.30;99.90
52181;DHT22;38158;53.338;6.514;2022-12-05T06:03:47;5.30;99.90
52181;DHT22;38158;53.338;6.514;2022-12-05T06:06:13;5.30;99.90
52181;DHT22;38158;53.338;6.514;2022-12-05T06:08:41;5.30;99.90
52181;DHT22;38158;53.338;6.514;2022-12-05T06:11:09;5.30;99.90
52181;DHT22;38158;53.338;6.514;2022-12-05T06:13:36;5.40;99.90
52181;DHT22;38158;53.338;6.514;2022-12-05T06:16:07;5.30;99.90
52181;DHT22;38158;53.338;6.514;2022-12-05T06:18:33;5.30;99.90
52181;DHT22;38158;53.338;6.514;2022-12-05T06:20:59;5.30;99.90
52181;DHT22;38158;53.338;6.514;2022-12-05T06:23:26;5.30;99.90
52181;DHT22;38158;53.338;6.514;2022-12-05T06:25:53;5.60;99.90
52181;DHT22;38158;53.338;6.514;2022-12-05T06:28:21;5.40;99.90
52181;DHT22;38158;53.338;6.514;2022-12-05T06:30:46;5.40;99.90
52181;DHT22;38158;53.338;6.514;2022-12-05T06:33:12;5.60;99.90
52181;DHT22;38158;53.338;6.514;2022-12-05T06:35:38;5.40;99.90
52181;DHT22;38158;53.338;6.514;2022-12-05T06:38:05;5.40;99.90
52181;DHT22;38158;53.338;6.514;2022-12-05T06:40:31;5.40;99.90
52181;DHT22;38158;53.338;6.514;2022-12-05T06:42:57;5.40;99.90
52181;DHT22;38158;53.338;6.514;2022-12-05T06:45:23;5.40;99.90
52181;DHT22;38158;53.338;6.514;2022-12-05T06:47:50;5.40;99.90
52181;DHT22;38158;53.338;6.514;2022-12-05T06:50:15;5.70;99.90
52181;DHT22;38158;53.338;6.514;2022-12-05T06:52:41;5.40;99.90
52181;DHT22;38158;53.338;6.514;2022-12-05T06:55:07;5.40;99.90
52181;DHT22;38158;53.338;6.514;2022-12-05T06:57:33;5.40;99.90
52181;DHT22;38158;53.338;6.514;2022-12-05T06:59:59;5.40;99.90
52181;DHT22;38158;53.338;6.514;2022-12-05T07:02:43;5.40;99.90
52181;DHT22;38158;53.338;6.514;2022-12-05T07:05:11;5.80;99.90
52181;DHT22;38158;53.338;6.514;2022-12-05T07:07:37;5.40;99.90
52181;DHT22;38158;53.338;6.514;2022-12-05T07:10:04;5.40;99.90
52181;DHT22;38158;53.338;6.514;2022-12-05T07:12:32;5.50;99.90
52181;DHT22;38158;53.338;6.514;2022-12-05T07:14:57;5.70;99.90
52181;DHT22;38158;53.338;6.514;2022-12-05T07:17:23;5.80;99.90
52181;DHT22;38158;53.338;6.514;2022-12-05T07:19:50;5.50;99.90
52181;DHT22;38158;53.338;6.514;2022-12-05T07:22:21;6.10;99.90
52181;DHT22;38158;53.338;6.514;2022-12-05T07:24:47;5.50;99.90
52181;DHT22;38158;53.338;6.514;2022-12-05T07:27:15;5.50;99.90
52181;DHT22;38158;53.338;6.514;2022-12-05T07:29:40;5.50;99.90
52181;DHT22;38158;53.338;6.514;2022-12-05T07:32:06;5.50;99.90
52181;DHT22;38158;53.338;6.514;2022-12-05T07:34:32;5.50;99.90
52181;DHT22;38158;53.338;6.514;2022-12-05T07:36:59;5.50;99.90
52181;DHT22;38158;53.338;6.514;2022-12-05T07:39:24;5.60;99.90
52181;DHT22;38158;53.338;6.514;2022-12-05T07:41:50;5.60;99.90
52181;DHT22;38158;53.338;6.514;2022-12-05T07:44:16;5.50;99.90
52181;DHT22;38158;53.338;6.514;2022-12-05T07:46:42;5.50;99.90
52181;DHT22;38158;53.338;6.514;2022-12-05T07:49:08;5.50;99.90
52181;DHT22;38158;53.338;6.514;2022-12-05T07:51:34;5.50;99.90
52181;DHT22;38158;53.338;6.514;2022-12-05T07:54:00;5.50;99.90
52181;DHT22;38158;53.338;6.514;2022-12-05T07:56:26;5.50;99.90
52181;DHT22;38158;53.338;6.514;2022-12-05T07:58:52;5.50;99.90
52181;DHT22;38158;53.338;6.514;2022-12-05T08:01:23;5.60;99.90
52181;DHT22;38158;53.338;6.514;2022-12-05T08:03:51;5.50;99.90
52181;DHT22;38158;53.338;6.514;2022-12-05T08:06:20;5.50;99.90
52181;DHT22;38158;53.338;6.514;2022-12-05T08:08:46;5.60;99.90
52181;DHT22;38158;53.338;6.514;2022-12-05T08:11:25;5.50;99.90
52181;DHT22;38158;53.338;6.514;2022-12-05T08:13:51;5.50;99.90
52181;DHT22;38158;53.338;6.514;2022-12-05T08:16:19;5.50;99.90
52181;DHT22;38158;53.338;6.514;2022-12-05T08:18:46;6.10;99.90
52181;DHT22;38158;53.338;6.514;2022-12-05T08:21:17;5.50;99.90
52181;DHT22;38158;53.338;6.514;2022-12-05T08:23:44;5.50;99.90
52181;DHT22;38158;53.338;6.514;2022-12-05T08:26:32;5.50;99.90
52181;DHT22;38158;53.338;6.514;2022-12-05T08:29:01;5.50;99.90
52181;DHT22;38158;53.338;6.514;2022-12-05T08:31:29;5.50;99.90
52181;DHT22;38158;53.338;6.514;2022-12-05T08:33:57;5.50;99.90
52181;DHT22;38158;53.338;6.514;2022-12-05T08:36:23;5.50;99.90
52181;DHT22;38158;53.338;6.514;2022-12-05T08:38:48;5.50;99.90
52181;DHT22;38158;53.338;6.514;2022-12-05T08:41:16;5.50;99.90
52181;DHT22;38158;53.338;6.514;2022-12-05T08:43:43;5.50;99.90
52181;DHT22;38158;53.338;6.514;2022-12-05T08:46:09;5.50;99.90
52181;DHT22;38158;53.338;6.514;2022-12-05T08:48:35;5.80;99.90
52181;DHT22;38158;53.338;6.514;2022-12-05T08:51:10;6.10;99.90
52181;DHT22;38158;53.338;6.514;2022-12-05T08:53:38;5.50;99.90
52181;DHT22;38158;53.338;6.514;2022-12-05T08:56:05;5.90;99.90
52181;DHT22;38158;53.338;6.514;2022-12-05T08:58:32;5.50;99.90
52181;DHT22;38158;53.338;6.514;2022-12-05T09:01:13;5.50;99.90
52181;DHT22;38158;53.338;6.514;2022-12-05T09:03:40;5.50;99.90
52181;DHT22;38158;53.338;6.514;2022-12-05T09:06:12;5.50;99.90
52181;DHT22;38158;53.338;6.514;2022-12-05T09:08:39;5.60;99.90
52181;DHT22;38158;53.338;6.514;2022-12-05T09:11:14;5.60;99.90
52181;DHT22;38158;53.338;6.514;2022-12-05T09:13:40;5.60;99.90
52181;DHT22;38158;53.338;6.514;2022-12-05T09:16:08;5.50;99.90
52181;DHT22;38158;53.338;6.514;2022-12-05T09:18:35;5.60;99.90
52181;DHT22;38158;53.338;6.514;2022-12-05T09:21:21;5.60;99.90
52181;DHT22;38158;53.338;6.514;2022-12-05T09:23:48;5.60;99.90
52181;DHT22;38158;53.338;6.514;2022-12-05T09:26:16;5.60;99.90
52181;DHT22;38158;53.338;6.514;2022-12-05T09:28:43;5.60;99.90
52181;DHT22;38158;53.338;6.514;2022-12-05T09:31:20;5.80;99.90
52181;DHT22;38158;53.338;6.514;2022-12-05T09:33:47;5.60;99.90
52181;DHT22;38158;53.338;6.514;2022-12-05T09:36:15;6.10;99.90
52181;DHT22;38158;53.338;6.514;2022-12-05T09:38:41;5.60;99.90
52181;DHT22;38158;53.338;6.514;2022-12-05T09:44:40;5.70;99.90
52181;DHT22;38158;53.338;6.514;2022-12-05T09:49:46;5.80;99.90
52181;DHT22;38158;53.338;6.514;2022-12-05T09:52:26;5.70;99.90
52181;DHT22;38158;53.338;6.514;2022-12-05T09:54:52;5.70;99.90
52181;DHT22;38158;53.338;6.514;2022-12-05T09:57:27;5.70;99.90
52181;DHT22;38158;53.338;6.514;2022-12-05T09:59:54;5.70;99.90
52181;DHT22;38158;53.338;6.514;2022-12-05T10:05:42;5.70;99.90
52181;DHT22;38158;53.338;6.514;2022-12-05T10:08:20;6.30;99.90
52181;DHT22;38158;53.338;6.514;2022-12-05T10:11:05;5.70;99.90
52181;DHT22;38158;53.338;6.514;2022-12-05T10:16:27;5.70;99.90
52181;DHT22;38158;53.338;6.514;2022-12-05T10:18:59;5.70;99.90
52181;DHT22;38158;53.338;6.514;2022-12-05T10:21:31;5.70;99.90
52181;DHT22;38158;53.338;6.514;2022-12-05T10:24:02;5.70;99.90
52181;DHT22;38158;53.338;6.514;2022-12-05T10:26:46;5.60;99.90
52181;DHT22;38158;53.338;6.514;2022-12-05T10:31:48;5.60;99.90
52181;DHT22;38158;53.338;6.514;2022-12-05T10:34:30;5.60;99.90
52181;DHT22;38158;53.338;6.514;2022-12-05T10:37:01;5.60;99.90
52181;DHT22;38158;53.338;6.514;2022-12-05T10:39:30;5.60;99.90
52181;DHT22;38158;53.338;6.514;2022-12-05T10:41:56;6.10;99.90
52181;DHT22;38158;53.338;6.514;2022-12-05T10:44:21;5.60;99.90
52181;DHT22;38158;53.338;6.514;2022-12-05T10:46:47;5.60;99.90
52181;DHT22;38158;53.338;6.514;2022-12-05T10:49:13;5.60;99.90
52181;DHT22;38158;53.338;6.514;2022-12-05T10:51:39;5.60;99.90
52181;DHT22;38158;53.338;6.514;2022-12-05T10:54:17;5.60;99.90
52181;DHT22;38158;53.338;6.514;2022-12-05T10:56:47;5.60;99.90
52181;DHT22;38158;53.338;6.514;2022-12-05T10:59:17;5.60;99.90
52181;DHT22;38158;53.338;6.514;2022-12-05T11:01:56;5.60;99.90
52181;DHT22;38158;53.338;6.514;2022-12-05T11:04:29;5.60;99.90
52181;DHT22;38158;53.338;6.514;2022-12-05T11:07:01;5.60;99.90
52181;DHT22;38158;53.338;6.514;2022-12-05T11:09:32;5.60;99.90
52181;DHT22;38158;53.338;6.514;2022-12-05T11:14:39;5.60;99.90
52181;DHT22;38158;53.338;6.514;2022-12-05T11:17:05;5.60;99.90
52181;DHT22;38158;53.338;6.514;2022-12-05T11:19:34;5.90;99.90
52181;DHT22;38158;53.338;6.514;2022-12-05T11:22:00;5.60;99.90
52181;DHT22;38158;53.338;6.514;2022-12-05T11:24:30;5.90;99.90
52181;DHT22;38158;53.338;6.514;2022-12-05T11:26:59;5.60;99.90
52181;DHT22;38158;53.338;6.514;2022-12-05T11:29:34;5.60;99.90
52181;DHT22;38158;53.338;6.514;2022-12-05T11:32:05;6.00;99.90
52181;DHT22;38158;53.338;6.514;2022-12-05T11:34:57;5.60;99.90
52181;DHT22;38158;53.338;6.514;2022-12-05T11:37:29;5.60;99.90
52181;DHT22;38158;53.338;6.514;2022-12-05T11:39:56;5.50;99.90
52181;DHT22;38158;53.338;6.514;2022-12-05T11:45:24;5.50;99.90
52181;DHT22;38158;53.338;6.514;2022-12-05T11:48:21;5.50;99.90
52181;DHT22;38158;53.338;6.514;2022-12-05T12:12:38;5.50;99.90
52181;DHT22;38158;53.338;6.514;2022-12-05T12:15:35;5.50;99.90
52181;DHT22;38158;53.338;6.514;2022-12-05T12:35:12;5.50;99.90
52181;DHT22;38158;53.338;6.514;2022-12-05T12:46:40;5.50;99.90
52181;DHT22;38158;53.338;6.514;2022-12-05T12:51:56;5.50;99.90
52181;DHT22;38158;53.338;6.514;2022-12-05T13:02:51;5.50;99.90
52181;DHT22;38158;53.338;6.514;2022-12-05T13:05:38;5.50;99.90
52181;DHT22;38158;53.338;6.514;2022-12-05T13:08:34;5.60;99.90
52181;DHT22;38158;53.338;6.514;2022-12-05T13:11:04;5.50;99.90
52181;DHT22;38158;53.338;6.514;2022-12-05T13:13:39;5.50;99.90
52181;DHT22;38158;53.338;6.514;2022-12-05T13:16:09;5.50;99.90
52181;DHT22;38158;53.338;6.514;2022-12-05T13:18:37;5.50;99.90
52181;DHT22;38158;53.338;6.514;2022-12-05T13:21:06;5.50;99.90
52181;DHT22;38158;53.338;6.514;2022-12-05T13:23:42;5.50;99.90
52181;DHT22;38158;53.338;6.514;2022-12-05T13:26:10;5.40;99.90
52181;DHT22;38158;53.338;6.514;2022-12-05T13:28:53;5.70;99.90
52181;DHT22;38158;53.338;6.514;2022-12-05T13:31:41;5.40;99.90
52181;DHT22;38158;53.338;6.514;2022-12-05T13:36:52;5.40;99.90
52181;DHT22;38158;53.338;6.514;2022-12-05T13:39:38;5.40;99.90
52181;DHT22;38158;53.338;6.514;2022-12-05T13:42:27;5.40;99.90
52181;DHT22;38158;53.338;6.514;2022-12-05T13:44:57;5.40;99.90
52181;DHT22;38158;53.338;6.514;2022-12-05T13:50:43;5.40;99.90
52181;DHT22;38158;53.338;6.514;2022-12-05T13:53:41;5.30;99.90
52181;DHT22;38158;53.338;6.514;2022-12-05T13:58:58;5.80;99.90
52181;DHT22;38158;53.338;6.514;2022-12-05T14:17:24;5.30;99.90
52181;DHT22;38158;53.338;6.514;2022-12-05T14:28:04;5.30;99.90
52181;DHT22;38158;53.338;6.514;2022-12-05T14:33:39;5.30;99.90
52181;DHT22;38158;53.338;6.514;2022-12-05T14:36:07;5.30;99.90
52181;DHT22;38158;53.338;6.514;2022-12-05T14:38:37;5.30;99.90
52181;DHT22;38158;53.338;6.514;2022-12-05T14:41:20;5.30;99.90
52181;DHT22;38158;53.338;6.514;2022-12-05T14:43:52;5.30;99.90
52181;DHT22;38158;53.338;6.514;2022-12-05T14:46:27;5.30;99.90
52181;DHT22;38158;53.338;6.514;2022-12-05T14:48:54;5.30;99.90
52181;DHT22;38158;53.338;6.514;2022-12-05T14:54:16;5.30;99.90
52181;DHT22;38158;53.338;6.514;2022-12-05T14:57:07;5.30;99.90
52181;DHT22;38158;53.338;6.514;2022-12-05T15:00:00;5.30;99.90
52181;DHT22;38158;53.338;6.514;2022-12-05T15:02:31;5.30;99.90
52181;DHT22;38158;53.338;6.514;2022-12-05T15:07:47;5.30;99.90
52181;DHT22;38158;53.338;6.514;2022-12-05T15:10:33;5.20;99.90
52181;DHT22;38158;53.338;6.514;2022-12-05T15:15:41;5.30;99.90
52181;DHT22;38158;53.338;6.514;2022-12-05T15:18:33;5.20;99.90
52181;DHT22;38158;53.338;6.514;2022-12-05T15:21:20;5.20;99.90
52181;DHT22;38158;53.338;6.514;2022-12-05T15:26:40;5.20;99.90
52181;DHT22;38158;53.338;6.514;2022-12-05T15:29:22;5.20;99.90
52181;DHT22;38158;53.338;6.514;2022-12-05T15:34:30;5.20;99.90
52181;DHT22;38158;53.338;6.514;2022-12-05T15:42:23;5.20;99.90
52181;DHT22;38158;53.338;6.514;2022-12-05T15:44:49;5.20;99.90
52181;DHT22;38158;53.338;6.514;2022-12-05T15:47:22;5.20;99.90
52181;DHT22;38158;53.338;6.514;2022-12-05T15:49:48;5.20;99.90
52181;DHT22;38158;53.338;6.514;2022-12-05T15:52:28;5.20;99.90
52181;DHT22;38158;53.338;6.514;2022-12-05T15:55:02;5.20;99.90
52181;DHT22;38158;53.338;6.514;2022-12-05T15:57:39;5.60;99.90
52181;DHT22;38158;53.338;6.514;2022-12-05T16:00:13;5.20;99.90
52181;DHT22;38158;53.338;6.514;2022-12-05T16:02:55;5.20;99.90
52181;DHT22;38158;53.338;6.514;2022-12-05T16:05:30;5.20;99.90
52181;DHT22;38158;53.338;6.514;2022-12-05T16:07:56;5.60;99.90
52181;DHT22;38158;53.338;6.514;2022-12-05T16:10:23;5.20;99.90
52181;DHT22;38158;53.338;6.514;2022-12-05T16:12:50;5.30;99.90
52181;DHT22;38158;53.338;6.514;2022-12-05T16:15:19;5.20;99.90
52181;DHT22;38158;53.338;6.514;2022-12-05T16:17:50;5.20;99.90
52181;DHT22;38158;53.338;6.514;2022-12-05T16:22:50;5.20;99.90
52181;DHT22;38158;53.338;6.514;2022-12-05T16:25:25;5.20;99.90
52181;DHT22;38158;53.338;6.514;2022-12-05T16:28:11;5.20;99.90
52181;DHT22;38158;53.338;6.514;2022-12-05T16:30:39;5.20;99.90
52181;DHT22;38158;53.338;6.514;2022-12-05T16:33:11;5.20;99.90
52181;DHT22;38158;53.338;6.514;2022-12-05T16:35:42;5.20;99.90
52181;DHT22;38158;53.338;6.514;2022-12-05T16:43:39;5.20;99.90
52181;DHT22;38158;53.338;6.514;2022-12-05T16:48:42;5.40;99.90
52181;DHT22;38158;53.338;6.514;2022-12-05T16:51:21;5.20;99.90
52181;DHT22;38158;53.338;6.514;2022-12-05T16:53:52;5.20;99.90
52181;DHT22;38158;53.338;6.514;2022-12-05T16:56:22;5.20;99.90
52181;DHT22;38158;53.338;6.514;2022-12-05T16:58:49;5.20;99.90
52181;DHT22;38158;53.338;6.514;2022-12-05T17:01:17;5.30;99.90
52181;DHT22;38158;53.338;6.514;2022-12-05T17:03:43;5.30;99.90
52181;DHT22;38158;53.338;6.514;2022-12-05T17:06:10;5.30;99.90
52181;DHT22;38158;53.338;6.514;2022-12-05T17:08:36;5.20;99.90
52181;DHT22;38158;53.338;6.514;2022-12-05T17:11:02;5.30;99.90
52181;DHT22;38158;53.338;6.514;2022-12-05T17:13:29;5.70;99.90
52181;DHT22;38158;53.338;6.514;2022-12-05T17:15:55;5.30;99.90
52181;DHT22;38158;53.338;6.514;2022-12-05T17:18:21;5.30;99.90
52181;DHT22;38158;53.338;6.514;2022-12-05T17:20:49;5.30;99.90
52181;DHT22;38158;53.338;6.514;2022-12-05T17:23:16;5.30;99.90
52181;DHT22;38158;53.338;6.514;2022-12-05T17:25:55;5.30;99.90
52181;DHT22;38158;53.338;6.514;2022-12-05T17:28:22;5.30;99.90
52181;DHT22;38158;53.338;6.514;2022-12-05T17:30:47;5.30;99.90
52181;DHT22;38158;53.338;6.514;2022-12-05T17:33:15;5.50;99.90
52181;DHT22;38158;53.338;6.514;2022-12-05T17:35:41;5.60;99.90
52181;DHT22;38158;53.338;6.514;2022-12-05T17:38:08;5.90;99.90
52181;DHT22;38158;53.338;6.514;2022-12-05T17:40:35;5.30;99.90
52181;DHT22;38158;53.338;6.514;2022-12-05T17:43:00;5.80;99.90
52181;DHT22;38158;53.338;6.514;2022-12-05T17:45:26;6.00;99.90
52181;DHT22;38158;53.338;6.514;2022-12-05T17:47:52;5.50;99.90
52181;DHT22;38158;53.338;6.514;2022-12-05T17:50:20;6.40;99.90
52181;DHT22;38158;53.338;6.514;2022-12-05T17:52:47;5.30;99.90
52181;DHT22;38158;53.338;6.514;2022-12-05T17:55:16;5.30;99.90
52181;DHT22;38158;53.338;6.514;2022-12-05T17:57:42;5.30;99.90
52181;DHT22;38158;53.338;6.514;2022-12-05T18:00:09;5.30;99.90
52181;DHT22;38158;53.338;6.514;2022-12-05T18:02:35;5.30;99.90
52181;DHT22;38158;53.338;6.514;2022-12-05T18:05:00;5.30;99.90
52181;DHT22;38158;53.338;6.514;2022-12-05T18:07:26;5.30;99.90
52181;DHT22;38158;53.338;6.514;2022-12-05T18:09:52;5.30;99.90
52181;DHT22;38158;53.338;6.514;2022-12-05T18:12:17;5.90;99.90
52181;DHT22;38158;53.338;6.514;2022-12-05T18:14:43;5.30;99.90
52181;DHT22;38158;53.338;6.514;2022-12-05T18:17:09;5.30;99.90
52181;DHT22;38158;53.338;6.514;2022-12-05T18:19:34;5.70;99.90
52181;DHT22;38158;53.338;6.514;2022-12-05T18:22:00;5.60;99.90
52181;DHT22;38158;53.338;6.514;2022-12-05T18:24:26;5.30;99.90
52181;DHT22;38158;53.338;6.514;2022-12-05T18:26:52;5.30;99.90
52181;DHT22;38158;53.338;6.514;2022-12-05T18:29:21;5.30;99.90
52181;DHT22;38158;53.338;6.514;2022-12-05T18:31:46;5.30;99.90
52181;DHT22;38158;53.338;6.514;2022-12-05T18:34:13;5.40;99.90
52181;DHT22;38158;53.338;6.514;2022-12-05T18:36:38;5.30;99.90
52181;DHT22;38158;53.338;6.514;2022-12-05T18:39:04;5.30;99.90
52181;DHT22;38158;53.338;6.514;2022-12-05T18:41:30;5.30;99.90
52181;DHT22;38158;53.338;6.514;2022-12-05T18:43:55;5.30;99.90
52181;DHT22;38158;53.338;6.514;2022-12-05T18:46:21;5.30;99.90
52181;DHT22;38158;53.338;6.514;2022-12-05T18:48:47;5.40;99.90
52181;DHT22;38158;53.338;6.514;2022-12-05T18:51:16;5.30;99.90
52181;DHT22;38158;53.338;6.514;2022-12-05T18:53:42;5.30;99.90
52181;DHT22;38158;53.338;6.514;2022-12-05T18:56:16;5.50;99.90
52181;DHT22;38158;53.338;6.514;2022-12-05T18:58:42;5.30;99.90
52181;DHT22;38158;53.338;6.514;2022-12-05T19:01:09;5.30;99.90
52181;DHT22;38158;53.338;6.514;2022-12-05T19:03:36;5.30;99.90
52181;DHT22;38158;53.338;6.514;2022-12-05T19:06:14;5.20;99.90
52181;DHT22;38158;53.338;6.514;2022-12-05T19:08:40;5.20;99.90
52181;DHT22;38158;53.338;6.514;2022-12-05T19:11:06;5.20;99.90
52181;DHT22;38158;53.338;6.514;2022-12-05T19:13:32;5.20;99.90